MDT,Max TemperatureF,Mean TemperatureF,Min TemperatureF,Max Dew PointF,MeanDew PointF,Min DewpointF,Max Humidity, Mean Humidity, Min Humidity, Max Sea Level PressureIn, Mean Sea Level PressureIn, Min Sea Level PressureIn, Max VisibilityMiles, Mean VisibilityMiles, Min VisibilityMiles, Max Wind SpeedMPH, Mean Wind SpeedMPH, Max Gust SpeedMPH,PrecipitationIn, CloudCover, Events, WindDirDegrees
2013-8-1,91,75,59,54,49,28,77,55,10,30.30,30.19,30.06,10,10,10,20,6,26,0.00,2,,223
2013-8-2,93,76,60,50,43,28,68,39,10,30.14,30.07,30.03,10,10,10,17,6,24,0.00,2,,294
2013-8-3,89,74,60,57,53,37,88,57,18,30.36,30.20,30.13,15,10,2,24,7,31,0.00,3,Rain-Thunderstorm,319
2013-8-4,86,72,59,54,48,37,72,53,19,30.28,30.19,30.16,10,10,10,17,8,18,0.00,2,,238
2013-8-5,84,74,64,57,45,37,73,43,21,30.19,30.14,30.10,20,11,10,23,6,30,0.00,3,Rain,245
2013-8-6,86,73,60,50,44,36,68,42,18,30.16,30.09,30.05,20,11,10,20,6,29,0.00,3,Rain,278
2013-8-7,75,68,60,55,49,41,82,57,37,30.20,30.14,30.09,20,11,10,15,8,17,0.00,3,,326
2013-8-8,73,66,59,59,53,41,100,74,37,30.24,30.16,30.10,20,8,2,20,7,24,0.00,6,,333
2013-8-9,77,66,55,50,45,37,72,54,24,30.28,30.24,30.20,10,10,10,30,5,21,0.00,3,Rain,228
2013-8-10,86,70,53,50,43,32,67,48,14,30.29,30.25,30.17,10,10,10,15,5,21,0.00,2,Rain-Thunderstorm,302
2013-8-11,80,70,60,48,44,37,63,45,21,30.28,30.24,30.21,10,10,10,15,7,18,0.00,3,Thunderstorm,318
2013-8-12,80,68,57,55,49,41,82,52,24,30.36,30.26,30.20,20,12,7,23,8,29,0.00,7,Rain-Thunderstorm,316
2013-8-13,75,65,55,54,47,39,82,58,27,30.32,30.25,30.20,20,11,10,21,11,29,0.00,3,Rain,262
2013-8-14,80,66,53,54,46,32,88,58,17,30.29,30.26,30.19,20,10,4,18,6,25,0.00,2,Fog,334
2013-8-15,84,70,55,48,40,27,67,40,13,30.27,30.20,30.16,10,10,10,21,5,30,0.00,1,Rain,329
2013-8-16,89,74,60,43,38,25,48,34,10,30.25,30.23,30.19,20,13,10,13,5,,0.00,1,,321
2013-8-17,93,76,60,54,40,16,77,39,6,30.24,30.19,30.10,20,13,10,10,4,,0.00,2,,309
2013-8-18,89,74,60,55,43,25,77,40,10,30.23,30.16,30.13,10,10,10,18,4,21,0.00,2,,323
2013-8-19,93,78,62,45,38,25,49,30,9,30.21,30.17,30.10,20,11,10,12,4,,0.00,2,,228
2013-8-20,96,81,66,41,34,16,37,24,6,30.13,30.10,30.05,20,11,10,21,5,28,0.00,2,,193
2013-8-21,91,78,66,59,40,32,78,32,12,30.23,30.16,30.13,20,12,10,20,6,25,0.00,2,Rain-Thunderstorm,338
2013-8-22,80,71,62,57,54,52,73,63,45,30.32,30.26,30.18,20,12,10,17,7,26,0.00,3,Thunderstorm,317
2013-8-23,84,73,62,57,52,45,82,57,27,30.26,30.14,30.05,20,11,10,25,9,32,0.00,4,Rain-Thunderstorm,227
2013-8-24,84,72,59,54,49,41,72,51,22,30.19,30.12,30.09,20,10,0,23,5,23,0.00,3,Rain-Thunderstorm,238
2013-8-25,87,74,62,52,47,37,63,47,17,30.24,30.19,30.17,10,10,10,10,4,,0.00,3,Thunderstorm,246
2013-8-26,89,76,62,55,50,43,68,49,21,30.24,30.21,30.17,20,11,10,21,4,21,0.00,3,Rain-Thunderstorm,272
2013-8-27,89,76,64,55,50,45,73,48,21,30.24,30.19,30.12,20,10,10,9,5,,0.00,3,Rain,243
2013-8-28,91,78,64,50,47,37,59,40,15,30.21,30.18,30.15,20,11,10,16,4,,0.00,1,,304
2013-8-29,93,80,66,48,41,32,46,31,11,30.27,30.22,30.19,20,11,10,22,7,30,0.00,2,,277
2013-8-30,89,79,69,48,43,39,41,31,17,30.28,30.24,30.18,20,11,10,18,5,25,0.00,3,,252
2013-8-31,89,78,66,54,44,34,56,35,15,30.21,30.16,30.13,10,10,10,21,7,25,0.00,3,,277